AFL3420 UUEE-VTSP
Flight info
| Callsign | AFL3420 |
|---|---|
| Flight time | N/A |
| Altitude | 37000 |
| Route | TOGMO3H/24C TOGMO M56 DENUD M161 AGMAN/K0917F390 M161 MILSO M875 AMDAR/N0485F390 M875 TAPIS L509 NONIB T400 SULOM A466 DPN L759 KKJ/N0489F410 L759 SATVA SATVA1C/09 |
| Aircraft | A359/H-SDE2E3GHIJ3J4J5LM1ORWXY/LB1D1 |
Departure
| Time | N/A |
|---|---|
| Airport | Sheremetyevo International Airport (UUEE) |
Arrival
| Time | 2026-05-08 21:30 |
|---|---|
| Airport | Phuket International Airport (VTSP) |
| Time | Latitude | Longitude | Altitude | Speed | Heading |
|---|---|---|---|---|---|
| 2026-05-08 18:59 | 20.52228 | 85.46187 | 40891 ft | 508 kts | 134° |
| 2026-05-08 19:00 | 20.48407 | 85.51025 | 40892 ft | 508 kts | 134° |
| 2026-05-08 19:00 | 20.43114 | 85.57718 | 40897 ft | 508 kts | 134° |
| 2026-05-08 19:01 | 20.38544 | 85.63492 | 40886 ft | 508 kts | 134° |
| 2026-05-08 19:01 | 20.33979 | 85.69252 | 40878 ft | 509 kts | 134° |
| 2026-05-08 19:02 | 20.29409 | 85.75011 | 40876 ft | 508 kts | 134° |
| 2026-05-08 19:02 | 20.24811 | 85.80737 | 40881 ft | 506 kts | 137° |
| 2026-05-08 19:03 | 20.19847 | 85.86040 | 40882 ft | 504 kts | 140° |
| 2026-05-08 19:03 | 20.14828 | 85.91194 | 40879 ft | 504 kts | 141° |
| 2026-05-08 19:04 | 20.10589 | 85.95514 | 40878 ft | 504 kts | 141° |
| 2026-05-08 19:04 | 20.04707 | 86.01512 | 40891 ft | 504 kts | 141° |
| 2026-05-08 19:05 | 20.00469 | 86.05839 | 40890 ft | 504 kts | 140° |
| 2026-05-08 19:05 | 19.95443 | 86.10978 | 40889 ft | 504 kts | 140° |
| 2026-05-08 19:06 | 19.90390 | 86.16144 | 40888 ft | 504 kts | 140° |
| 2026-05-08 19:06 | 19.85386 | 86.21368 | 40874 ft | 504 kts | 139° |
| 2026-05-08 19:07 | 19.80416 | 86.26644 | 40881 ft | 504 kts | 139° |
| 2026-05-08 19:07 | 19.75451 | 86.31906 | 40881 ft | 503 kts | 139° |
| 2026-05-08 19:08 | 19.70516 | 86.37111 | 40868 ft | 503 kts | 139° |
| 2026-05-08 19:08 | 19.65549 | 86.42335 | 40871 ft | 503 kts | 139° |
| 2026-05-08 19:09 | 19.60551 | 86.47586 | 40879 ft | 502 kts | 139° |
| 2026-05-08 19:09 | 19.55602 | 86.52748 | 40881 ft | 502 kts | 140° |
| 2026-05-08 19:10 | 19.50612 | 86.57924 | 40879 ft | 501 kts | 140° |
| 2026-05-08 19:10 | 19.45626 | 86.63091 | 40886 ft | 501 kts | 140° |
| 2026-05-08 19:11 | 19.40641 | 86.68258 | 40876 ft | 501 kts | 140° |
| 2026-05-08 19:11 | 19.35656 | 86.73427 | 40878 ft | 501 kts | 140° |
| 2026-05-08 19:12 | 19.30675 | 86.78587 | 40883 ft | 501 kts | 140° |
| 2026-05-08 19:12 | 19.25697 | 86.83740 | 40885 ft | 500 kts | 140° |
| 2026-05-08 19:13 | 19.20716 | 86.88891 | 40882 ft | 500 kts | 140° |
| 2026-05-08 19:13 | 19.15737 | 86.94035 | 40884 ft | 500 kts | 140° |
| 2026-05-08 19:14 | 19.10791 | 86.99140 | 40883 ft | 499 kts | 139° |
| 2026-05-08 19:14 | 19.05825 | 87.04262 | 40881 ft | 499 kts | 139° |
| 2026-05-08 19:15 | 19.00851 | 87.09387 | 40887 ft | 498 kts | 139° |
| 2026-05-08 19:15 | 18.95884 | 87.14501 | 40885 ft | 498 kts | 139° |
| 2026-05-08 19:16 | 18.90920 | 87.19607 | 40886 ft | 497 kts | 139° |
| 2026-05-08 19:16 | 18.85965 | 87.24699 | 40887 ft | 497 kts | 139° |
| 2026-05-08 19:17 | 18.81013 | 87.29785 | 40891 ft | 496 kts | 139° |
| 2026-05-08 19:17 | 18.76093 | 87.34831 | 40890 ft | 496 kts | 139° |
| 2026-05-08 19:18 | 18.71145 | 87.39904 | 40885 ft | 495 kts | 139° |
| 2026-05-08 19:18 | 18.66206 | 87.44962 | 40886 ft | 495 kts | 139° |
| 2026-05-08 19:19 | 18.61271 | 87.50012 | 40886 ft | 494 kts | 139° |
| 2026-05-08 19:19 | 18.56336 | 87.55057 | 40885 ft | 494 kts | 139° |
| 2026-05-08 19:20 | 18.51405 | 87.60095 | 40883 ft | 493 kts | 139° |
| 2026-05-08 19:20 | 18.46470 | 87.65132 | 40884 ft | 493 kts | 139° |
| 2026-05-08 19:21 | 18.41542 | 87.70158 | 40882 ft | 493 kts | 139° |
| 2026-05-08 19:21 | 18.36650 | 87.75143 | 40882 ft | 493 kts | 139° |
| 2026-05-08 19:22 | 18.31721 | 87.80161 | 40882 ft | 492 kts | 139° |
| 2026-05-08 19:22 | 18.26799 | 87.85176 | 40882 ft | 493 kts | 139° |
| 2026-05-08 19:23 | 18.21912 | 87.90240 | 40881 ft | 493 kts | 138° |
| 2026-05-08 19:23 | 18.17040 | 87.95312 | 40882 ft | 493 kts | 138° |
| 2026-05-08 19:24 | 18.12156 | 88.00383 | 40879 ft | 492 kts | 138° |
| 2026-05-08 19:24 | 18.07280 | 88.05432 | 40879 ft | 492 kts | 138° |
| 2026-05-08 19:25 | 18.02419 | 88.10457 | 40879 ft | 492 kts | 138° |
| 2026-05-08 19:25 | 17.97536 | 88.15502 | 40877 ft | 492 kts | 138° |
| 2026-05-08 19:26 | 17.92653 | 88.20542 | 40875 ft | 491 kts | 138° |
| 2026-05-08 19:26 | 17.87779 | 88.25570 | 40877 ft | 491 kts | 138° |
| 2026-05-08 19:27 | 17.82906 | 88.30593 | 40881 ft | 491 kts | 138° |
| 2026-05-08 19:27 | 17.78036 | 88.35609 | 40877 ft | 490 kts | 138° |
| 2026-05-08 19:28 | 17.73164 | 88.40622 | 40872 ft | 490 kts | 138° |
| 2026-05-08 19:28 | 17.68296 | 88.45627 | 40873 ft | 490 kts | 137° |
| 2026-05-08 19:29 | 17.63466 | 88.50589 | 40873 ft | 489 kts | 137° |
| 2026-05-08 19:29 | 17.58605 | 88.55579 | 40875 ft | 489 kts | 137° |
| 2026-05-08 19:30 | 17.53746 | 88.60563 | 40873 ft | 488 kts | 137° |
| 2026-05-08 19:30 | 17.48887 | 88.65543 | 40873 ft | 488 kts | 137° |
| 2026-05-08 19:31 | 17.44039 | 88.70508 | 40871 ft | 487 kts | 137° |
| 2026-05-08 19:31 | 17.39193 | 88.75467 | 40871 ft | 487 kts | 137° |
| 2026-05-08 19:32 | 17.34352 | 88.80417 | 40870 ft | 486 kts | 137° |
| 2026-05-08 19:32 | 17.29545 | 88.85329 | 40871 ft | 486 kts | 137° |
| 2026-05-08 19:33 | 17.24700 | 88.90275 | 40872 ft | 486 kts | 137° |
| 2026-05-08 19:33 | 17.19865 | 88.95208 | 40869 ft | 485 kts | 137° |
| 2026-05-08 19:34 | 17.15056 | 89.00164 | 40872 ft | 485 kts | 137° |
| 2026-05-08 19:34 | 17.10269 | 89.05145 | 40871 ft | 485 kts | 137° |
| 2026-05-08 19:35 | 17.05514 | 89.10087 | 40866 ft | 485 kts | 137° |
| 2026-05-08 19:35 | 17.00722 | 89.15054 | 40868 ft | 484 kts | 137° |
| 2026-05-08 19:36 | 16.95933 | 89.20011 | 40867 ft | 484 kts | 137° |
| 2026-05-08 19:36 | 16.91142 | 89.24965 | 40867 ft | 484 kts | 137° |
| 2026-05-08 19:37 | 16.86359 | 89.29907 | 40866 ft | 484 kts | 137° |
| 2026-05-08 19:37 | 16.81580 | 89.34842 | 40865 ft | 483 kts | 137° |
| 2026-05-08 19:38 | 16.76794 | 89.39780 | 40864 ft | 483 kts | 137° |
| 2026-05-08 19:38 | 16.72051 | 89.44671 | 40865 ft | 482 kts | 137° |
| 2026-05-08 19:39 | 16.67273 | 89.49594 | 40861 ft | 482 kts | 137° |
| 2026-05-08 19:39 | 16.62494 | 89.54514 | 40866 ft | 482 kts | 136° |
| 2026-05-08 19:40 | 16.57725 | 89.59420 | 40862 ft | 481 kts | 136° |
| 2026-05-08 19:40 | 16.52955 | 89.64324 | 40859 ft | 481 kts | 136° |
| 2026-05-08 19:41 | 16.48185 | 89.69224 | 40861 ft | 481 kts | 136° |
| 2026-05-08 19:41 | 16.43441 | 89.74094 | 40861 ft | 481 kts | 136° |
| 2026-05-08 19:42 | 16.38667 | 89.78991 | 40863 ft | 481 kts | 136° |
| 2026-05-08 19:42 | 16.33893 | 89.83884 | 40860 ft | 481 kts | 136° |
| 2026-05-08 19:43 | 16.29122 | 89.88772 | 40860 ft | 481 kts | 136° |
| 2026-05-08 19:43 | 16.24354 | 89.93651 | 40860 ft | 481 kts | 136° |
| 2026-05-08 19:44 | 16.19620 | 89.98494 | 40856 ft | 480 kts | 136° |
| 2026-05-08 19:44 | 16.14853 | 90.03366 | 40856 ft | 480 kts | 136° |
| 2026-05-08 19:45 | 16.10076 | 90.08246 | 40857 ft | 480 kts | 136° |
| 2026-05-08 19:45 | 16.05303 | 90.13117 | 40858 ft | 480 kts | 136° |
| 2026-05-08 19:46 | 16.00537 | 90.17983 | 40856 ft | 480 kts | 136° |
| 2026-05-08 19:46 | 15.93473 | 90.25383 | 40855 ft | 480 kts | 135° |
| 2026-05-08 19:47 | 15.88811 | 90.30291 | 40856 ft | 480 kts | 135° |
| 2026-05-08 19:47 | 15.84113 | 90.35219 | 40855 ft | 480 kts | 135° |
| 2026-05-08 19:48 | 15.79405 | 90.40145 | 40858 ft | 480 kts | 135° |
| 2026-05-08 19:48 | 15.74703 | 90.45059 | 40859 ft | 480 kts | 135° |
| 2026-05-08 19:49 | 15.70002 | 90.49969 | 40852 ft | 480 kts | 135° |
| 2026-05-08 19:49 | 15.65299 | 90.54878 | 40857 ft | 480 kts | 135° |
| 2026-05-08 19:50 | 15.60592 | 90.59787 | 40854 ft | 480 kts | 135° |
| 2026-05-08 19:50 | 15.56678 | 90.63868 | 40852 ft | 479 kts | 135° |
| 2026-05-08 19:51 | 15.51974 | 90.68769 | 40853 ft | 479 kts | 135° |
| 2026-05-08 19:51 | 15.47259 | 90.73678 | 40859 ft | 479 kts | 135° |
| 2026-05-08 19:52 | 15.42553 | 90.78574 | 40853 ft | 479 kts | 135° |
| 2026-05-08 19:52 | 15.37873 | 90.83439 | 40853 ft | 479 kts | 135° |
| 2026-05-08 19:53 | 15.33168 | 90.88328 | 40847 ft | 479 kts | 135° |
| 2026-05-08 19:53 | 15.28465 | 90.93211 | 40845 ft | 478 kts | 135° |
| 2026-05-08 19:54 | 15.23762 | 90.98091 | 40845 ft | 478 kts | 135° |
| 2026-05-08 19:54 | 15.19066 | 91.02960 | 40846 ft | 478 kts | 135° |
| 2026-05-08 19:55 | 15.14366 | 91.07830 | 40845 ft | 478 kts | 135° |
| 2026-05-08 19:55 | 15.09666 | 91.12697 | 40843 ft | 478 kts | 135° |
| 2026-05-08 19:56 | 15.04988 | 91.17538 | 40840 ft | 478 kts | 135° |
| 2026-05-08 19:56 | 15.00290 | 91.22396 | 40841 ft | 478 kts | 135° |
| 2026-05-08 19:57 | 14.95588 | 91.27255 | 40845 ft | 477 kts | 135° |
| 2026-05-08 19:57 | 14.90888 | 91.32110 | 40843 ft | 477 kts | 135° |
| 2026-05-08 19:58 | 14.86184 | 91.36965 | 40843 ft | 478 kts | 135° |
| 2026-05-08 19:58 | 14.81478 | 91.41818 | 40844 ft | 478 kts | 135° |
| 2026-05-08 19:59 | 14.76772 | 91.46669 | 40841 ft | 478 kts | 135° |
| 2026-05-08 19:59 | 14.72083 | 91.51499 | 40841 ft | 478 kts | 135° |
| 2026-05-08 20:00 | 14.67362 | 91.56359 | 40840 ft | 478 kts | 135° |
| 2026-05-08 20:00 | 14.62650 | 91.61206 | 40840 ft | 478 kts | 135° |
| 2026-05-08 20:01 | 14.57928 | 91.66061 | 40839 ft | 478 kts | 135° |
| 2026-05-08 20:01 | 14.53244 | 91.70874 | 40840 ft | 478 kts | 135° |
| 2026-05-08 20:02 | 14.48522 | 91.75723 | 40837 ft | 478 kts | 135° |
| 2026-05-08 20:02 | 14.43801 | 91.80567 | 40838 ft | 478 kts | 135° |
| 2026-05-08 20:03 | 14.39083 | 91.85406 | 40841 ft | 478 kts | 135° |
| 2026-05-08 20:03 | 14.34364 | 91.90241 | 40833 ft | 478 kts | 135° |
| 2026-05-08 20:04 | 14.29650 | 91.95070 | 40852 ft | 477 kts | 135° |
| 2026-05-08 20:04 | 14.24968 | 91.99863 | 40847 ft | 477 kts | 135° |
| 2026-05-08 20:05 | 14.20307 | 92.04720 | 40854 ft | 477 kts | 134° |
| 2026-05-08 20:05 | 14.15682 | 92.09625 | 40841 ft | 476 kts | 134° |
| 2026-05-08 20:06 | 14.11060 | 92.14520 | 40857 ft | 475 kts | 134° |
| 2026-05-08 20:06 | 14.06435 | 92.19396 | 40840 ft | 476 kts | 135° |
| 2026-05-08 20:07 | 14.01794 | 92.24277 | 40854 ft | 477 kts | 135° |
| 2026-05-08 20:07 | 13.97178 | 92.29128 | 40840 ft | 477 kts | 135° |
| 2026-05-08 20:08 | 13.92525 | 92.34016 | 40848 ft | 478 kts | 134° |
| 2026-05-08 20:08 | 13.87796 | 92.38841 | 40851 ft | 478 kts | 135° |
| 2026-05-08 20:09 | 13.83017 | 92.43612 | 40836 ft | 479 kts | 136° |
| 2026-05-08 20:09 | 13.78229 | 92.48385 | 40836 ft | 479 kts | 135° |
| 2026-05-08 20:10 | 13.73442 | 92.53168 | 40851 ft | 479 kts | 135° |
| 2026-05-08 20:10 | 13.68660 | 92.57951 | 40851 ft | 479 kts | 135° |
| 2026-05-08 20:11 | 13.63902 | 92.62709 | 40838 ft | 479 kts | 135° |
| 2026-05-08 20:11 | 13.59110 | 92.67498 | 40839 ft | 480 kts | 135° |
| 2026-05-08 20:12 | 13.54322 | 92.72280 | 40851 ft | 480 kts | 135° |
| 2026-05-08 20:12 | 13.49566 | 92.77026 | 40847 ft | 480 kts | 135° |
| 2026-05-08 20:13 | 13.44772 | 92.81808 | 40831 ft | 480 kts | 135° |
| 2026-05-08 20:13 | 13.39977 | 92.86588 | 40832 ft | 480 kts | 135° |
| 2026-05-08 20:14 | 13.35179 | 92.91367 | 40848 ft | 480 kts | 135° |
| 2026-05-08 20:14 | 13.30416 | 92.96109 | 40848 ft | 479 kts | 135° |
| 2026-05-08 20:15 | 13.25622 | 93.00881 | 40839 ft | 479 kts | 135° |
| 2026-05-08 20:15 | 13.20833 | 93.05645 | 40832 ft | 480 kts | 135° |
| 2026-05-08 20:16 | 13.16035 | 93.10414 | 40848 ft | 480 kts | 135° |
| 2026-05-08 20:16 | 13.11237 | 93.15180 | 40851 ft | 480 kts | 135° |
| 2026-05-08 20:17 | 13.06443 | 93.19940 | 40833 ft | 480 kts | 135° |
| 2026-05-08 20:17 | 13.01645 | 93.24701 | 40833 ft | 480 kts | 135° |
| 2026-05-08 20:18 | 12.96844 | 93.29461 | 40844 ft | 480 kts | 135° |
| 2026-05-08 20:18 | 12.92067 | 93.34196 | 40846 ft | 480 kts | 135° |
| 2026-05-08 20:19 | 12.87261 | 93.38957 | 40832 ft | 479 kts | 135° |
| 2026-05-08 20:19 | 12.82465 | 93.43704 | 40834 ft | 479 kts | 135° |
| 2026-05-08 20:20 | 12.77667 | 93.48452 | 40837 ft | 479 kts | 135° |
| 2026-05-08 20:20 | 12.72895 | 93.53170 | 40843 ft | 479 kts | 135° |
| 2026-05-08 20:21 | 12.68103 | 93.57907 | 40842 ft | 479 kts | 135° |
| 2026-05-08 20:21 | 12.63299 | 93.62653 | 40831 ft | 479 kts | 135° |
| 2026-05-08 20:22 | 12.58497 | 93.67394 | 40831 ft | 479 kts | 135° |
| 2026-05-08 20:22 | 12.54502 | 93.71337 | 40847 ft | 479 kts | 135° |
| 2026-05-08 20:23 | 12.48896 | 93.76867 | 40846 ft | 479 kts | 135° |
| 2026-05-08 20:23 | 12.44101 | 93.81593 | 40842 ft | 479 kts | 135° |
| 2026-05-08 20:24 | 12.39328 | 93.86296 | 40846 ft | 479 kts | 135° |
| 2026-05-08 20:24 | 12.34529 | 93.91021 | 40830 ft | 479 kts | 135° |
| 2026-05-08 20:25 | 12.29723 | 93.95750 | 40828 ft | 479 kts | 135° |
| 2026-05-08 20:25 | 12.24922 | 94.00472 | 40844 ft | 479 kts | 134° |
| 2026-05-08 20:26 | 12.20129 | 94.05195 | 40835 ft | 478 kts | 134° |
| 2026-05-08 20:26 | 12.15355 | 94.09943 | 40845 ft | 478 kts | 134° |
| 2026-05-08 20:27 | 12.10583 | 94.14696 | 40833 ft | 478 kts | 134° |
| 2026-05-08 20:27 | 12.05840 | 94.19412 | 40835 ft | 478 kts | 134° |
| 2026-05-08 20:28 | 12.01067 | 94.24153 | 40837 ft | 478 kts | 134° |
| 2026-05-08 20:28 | 11.96296 | 94.28887 | 40838 ft | 478 kts | 134° |
| 2026-05-08 20:29 | 11.91531 | 94.33614 | 40839 ft | 478 kts | 134° |
| 2026-05-08 20:29 | 11.86749 | 94.38355 | 40836 ft | 478 kts | 134° |
| 2026-05-08 20:30 | 11.82025 | 94.43062 | 40834 ft | 477 kts | 133° |
| 2026-05-08 20:30 | 11.77571 | 94.48104 | 40841 ft | 477 kts | 130° |
| 2026-05-08 20:31 | 11.73288 | 94.53271 | 40834 ft | 476 kts | 130° |
| 2026-05-08 20:31 | 11.68982 | 94.58424 | 40836 ft | 476 kts | 130° |
| 2026-05-08 20:32 | 11.64646 | 94.63539 | 40835 ft | 476 kts | 130° |
| 2026-05-08 20:32 | 11.60322 | 94.68608 | 40832 ft | 476 kts | 130° |
| 2026-05-08 20:33 | 11.55967 | 94.73709 | 40830 ft | 477 kts | 130° |
| 2026-05-08 20:33 | 11.51607 | 94.78814 | 40834 ft | 476 kts | 130° |
| 2026-05-08 20:34 | 11.47246 | 94.83921 | 40835 ft | 476 kts | 130° |
| 2026-05-08 20:35 | 11.40748 | 94.91528 | 40833 ft | 476 kts | 130° |
| 2026-05-08 20:35 | 11.36395 | 94.96621 | 40835 ft | 476 kts | 130° |
| 2026-05-08 20:36 | 11.32032 | 95.01721 | 40834 ft | 476 kts | 131° |
| 2026-05-08 20:36 | 11.27683 | 95.06803 | 40836 ft | 475 kts | 131° |
| 2026-05-08 20:37 | 11.23369 | 95.11842 | 40835 ft | 475 kts | 131° |
| 2026-05-08 20:37 | 11.19021 | 95.16918 | 40833 ft | 475 kts | 131° |
| 2026-05-08 20:38 | 11.14673 | 95.21991 | 40835 ft | 475 kts | 131° |
| 2026-05-08 20:38 | 11.11054 | 95.26211 | 40836 ft | 475 kts | 131° |
| 2026-05-08 20:39 | 11.06701 | 95.31286 | 40831 ft | 475 kts | 131° |
| 2026-05-08 20:39 | 11.02348 | 95.36357 | 40833 ft | 475 kts | 131° |
| 2026-05-08 20:40 | 10.98018 | 95.41396 | 40833 ft | 475 kts | 131° |
| 2026-05-08 20:40 | 10.93665 | 95.46463 | 40834 ft | 475 kts | 131° |
| 2026-05-08 20:41 | 10.89314 | 95.51527 | 40833 ft | 475 kts | 131° |
| 2026-05-08 20:41 | 10.84962 | 95.56589 | 40833 ft | 475 kts | 131° |
| 2026-05-08 20:42 | 10.80607 | 95.61651 | 40835 ft | 475 kts | 131° |
| 2026-05-08 20:42 | 10.76242 | 95.66720 | 40830 ft | 476 kts | 131° |
| 2026-05-08 20:43 | 10.71906 | 95.71756 | 40833 ft | 476 kts | 131° |
| 2026-05-08 20:43 | 10.67517 | 95.76849 | 40831 ft | 476 kts | 131° |
| 2026-05-08 20:44 | 10.63153 | 95.81910 | 40837 ft | 476 kts | 131° |
| 2026-05-08 20:44 | 10.58811 | 95.86945 | 40839 ft | 476 kts | 131° |
| 2026-05-08 20:45 | 10.54442 | 95.92010 | 40837 ft | 476 kts | 131° |
| 2026-05-08 20:45 | 10.50070 | 95.97077 | 40836 ft | 476 kts | 131° |
| 2026-05-08 20:46 | 10.45700 | 96.02136 | 40836 ft | 476 kts | 131° |
| 2026-05-08 20:46 | 10.41329 | 96.07195 | 40835 ft | 476 kts | 131° |
| 2026-05-08 20:47 | 10.36957 | 96.12254 | 40835 ft | 476 kts | 131° |
| 2026-05-08 20:47 | 10.32621 | 96.17267 | 40838 ft | 476 kts | 131° |
| 2026-05-08 20:48 | 10.28244 | 96.22323 | 40839 ft | 476 kts | 131° |
| 2026-05-08 20:48 | 10.23869 | 96.27378 | 40838 ft | 476 kts | 131° |
| 2026-05-08 20:49 | 10.19497 | 96.32428 | 40840 ft | 475 kts | 131° |
| 2026-05-08 20:49 | 10.15155 | 96.37439 | 40837 ft | 475 kts | 131° |
| 2026-05-08 20:50 | 10.10784 | 96.42480 | 40841 ft | 475 kts | 131° |
| 2026-05-08 20:50 | 10.06407 | 96.47527 | 40843 ft | 475 kts | 131° |
| 2026-05-08 20:51 | 10.02033 | 96.52569 | 40845 ft | 475 kts | 131° |
| 2026-05-08 20:51 | 9.97444 | 96.57350 | 40842 ft | 476 kts | 135° |
| 2026-05-08 20:52 | 9.92622 | 96.61960 | 40846 ft | 476 kts | 136° |
| 2026-05-08 20:52 | 9.87761 | 96.66524 | 40844 ft | 476 kts | 136° |
| 2026-05-08 20:53 | 9.82888 | 96.71086 | 40841 ft | 476 kts | 136° |
| 2026-05-08 20:53 | 9.78019 | 96.75651 | 40839 ft | 476 kts | 136° |
| 2026-05-08 20:54 | 9.73156 | 96.80215 | 40838 ft | 476 kts | 136° |
| 2026-05-08 20:54 | 9.68326 | 96.84746 | 40695 ft | 476 kts | 136° |
| 2026-05-08 20:54 | 9.65894 | 96.87027 | 40455 ft | 476 kts | 136° |
| 2026-05-08 20:55 | 9.63455 | 96.89315 | 40210 ft | 478 kts | 136° |
| 2026-05-08 20:55 | 9.61001 | 96.91616 | 39961 ft | 479 kts | 136° |
| 2026-05-08 20:55 | 9.58555 | 96.93908 | 39737 ft | 480 kts | 136° |
| 2026-05-08 20:55 | 9.56101 | 96.96208 | 39506 ft | 481 kts | 136° |
| 2026-05-08 20:56 | 9.53649 | 96.98505 | 39155 ft | 479 kts | 136° |
| 2026-05-08 20:56 | 9.51203 | 97.00796 | 38574 ft | 479 kts | 137° |
| 2026-05-08 20:56 | 9.48755 | 97.03089 | 37862 ft | 480 kts | 137° |
| 2026-05-08 20:56 | 9.46326 | 97.05362 | 37176 ft | 481 kts | 137° |
| 2026-05-08 20:57 | 9.43871 | 97.07659 | 36491 ft | 481 kts | 137° |
| 2026-05-08 20:57 | 9.41409 | 97.09962 | 35794 ft | 483 kts | 137° |
| 2026-05-08 20:57 | 9.38931 | 97.12280 | 35071 ft | 485 kts | 137° |
| 2026-05-08 20:57 | 9.36441 | 97.14610 | 34258 ft | 489 kts | 137° |
| 2026-05-08 20:58 | 9.33933 | 97.16955 | 33363 ft | 493 kts | 136° |
| 2026-05-08 20:58 | 9.31399 | 97.19325 | 32443 ft | 497 kts | 136° |
| 2026-05-08 20:58 | 9.28849 | 97.21708 | 31547 ft | 499 kts | 136° |
| 2026-05-08 20:58 | 9.26287 | 97.24103 | 30618 ft | 503 kts | 136° |
| 2026-05-08 20:59 | 9.23705 | 97.26516 | 29598 ft | 507 kts | 136° |
| 2026-05-08 20:59 | 9.21108 | 97.28943 | 28621 ft | 508 kts | 136° |
| 2026-05-08 20:59 | 9.18527 | 97.31354 | 27931 ft | 502 kts | 136° |
| 2026-05-08 20:59 | 9.16007 | 97.33708 | 27250 ft | 497 kts | 136° |
| 2026-05-08 21:00 | 9.13475 | 97.36074 | 26555 ft | 493 kts | 136° |
| 2026-05-08 21:00 | 9.10962 | 97.38418 | 25854 ft | 489 kts | 136° |
| 2026-05-08 21:00 | 9.08470 | 97.40744 | 25167 ft | 486 kts | 136° |
| 2026-05-08 21:00 | 9.05991 | 97.43058 | 24476 ft | 482 kts | 136° |
| 2026-05-08 21:01 | 9.03539 | 97.45347 | 23792 ft | 479 kts | 136° |
| 2026-05-08 21:01 | 9.01093 | 97.47627 | 23055 ft | 476 kts | 137° |
| 2026-05-08 21:01 | 8.98671 | 97.49885 | 22327 ft | 470 kts | 136° |
| 2026-05-08 21:01 | 8.96279 | 97.52115 | 21644 ft | 465 kts | 136° |
| 2026-05-08 21:02 | 8.93916 | 97.54318 | 20969 ft | 459 kts | 136° |
| 2026-05-08 21:02 | 8.91580 | 97.56495 | 20281 ft | 454 kts | 136° |
| 2026-05-08 21:02 | 8.89300 | 97.58621 | 19610 ft | 449 kts | 136° |
| 2026-05-08 21:02 | 8.87008 | 97.60757 | 18928 ft | 445 kts | 136° |
| 2026-05-08 21:03 | 8.84739 | 97.62874 | 18234 ft | 442 kts | 136° |
| 2026-05-08 21:03 | 8.82482 | 97.64974 | 17439 ft | 439 kts | 137° |
| 2026-05-08 21:03 | 8.80239 | 97.67052 | 16699 ft | 434 kts | 137° |
| 2026-05-08 21:03 | 8.78022 | 97.69104 | 15999 ft | 429 kts | 137° |
| 2026-05-08 21:04 | 8.75832 | 97.71132 | 15298 ft | 424 kts | 136° |
| 2026-05-08 21:04 | 8.73669 | 97.73136 | 14605 ft | 420 kts | 136° |
| 2026-05-08 21:04 | 8.71526 | 97.75123 | 13912 ft | 416 kts | 136° |
| 2026-05-08 21:04 | 8.69409 | 97.77084 | 13203 ft | 411 kts | 136° |
| 2026-05-08 21:05 | 8.67312 | 97.79028 | 12467 ft | 406 kts | 136° |
| 2026-05-08 21:05 | 8.65246 | 97.80943 | 11867 ft | 398 kts | 136° |
| 2026-05-08 21:05 | 8.63217 | 97.82823 | 11255 ft | 391 kts | 136° |
| 2026-05-08 21:05 | 8.61258 | 97.84638 | 10931 ft | 378 kts | 136° |
| 2026-05-08 21:06 | 8.59361 | 97.86393 | 10808 ft | 359 kts | 136° |
| 2026-05-08 21:06 | 8.57573 | 97.88048 | 10678 ft | 334 kts | 136° |
| 2026-05-08 21:06 | 8.55944 | 97.89555 | 10535 ft | 301 kts | 136° |
| 2026-05-08 21:06 | 8.54456 | 97.90932 | 10428 ft | 284 kts | 136° |
| 2026-05-08 21:07 | 8.53041 | 97.92244 | 10302 ft | 275 kts | 136° |
| 2026-05-08 21:07 | 8.51652 | 97.93530 | 10183 ft | 268 kts | 136° |
| 2026-05-08 21:07 | 8.50272 | 97.94810 | 9992 ft | 269 kts | 136° |
| 2026-05-08 21:07 | 8.48818 | 97.96038 | 9730 ft | 281 kts | 145° |
| 2026-05-08 21:08 | 8.46997 | 97.96834 | 9605 ft | 288 kts | 163° |
| 2026-05-08 21:08 | 8.45031 | 97.97250 | 9139 ft | 290 kts | 168° |
| 2026-05-08 21:08 | 8.43034 | 97.97586 | 8669 ft | 291 kts | 168° |
| 2026-05-08 21:08 | 8.41049 | 97.97915 | 8300 ft | 288 kts | 168° |
| 2026-05-08 21:09 | 8.39089 | 97.98246 | 8060 ft | 280 kts | 168° |
| 2026-05-08 21:09 | 8.37205 | 97.98568 | 7937 ft | 269 kts | 168° |
| 2026-05-08 21:09 | 8.35383 | 97.98883 | 7714 ft | 262 kts | 167° |
| 2026-05-08 21:09 | 8.33806 | 97.99159 | 7449 ft | 260 kts | 167° |
| 2026-05-08 21:10 | 8.32025 | 97.99472 | 7176 ft | 259 kts | 167° |
| 2026-05-08 21:10 | 8.30252 | 97.99784 | 6901 ft | 258 kts | 168° |
| 2026-05-08 21:10 | 8.28463 | 98.00005 | 6677 ft | 258 kts | 172° |
| 2026-05-08 21:10 | 8.26677 | 98.00166 | 6450 ft | 257 kts | 172° |
| 2026-05-08 21:11 | 8.24897 | 98.00330 | 6220 ft | 257 kts | 172° |
| 2026-05-08 21:11 | 8.23117 | 98.00502 | 5992 ft | 256 kts | 171° |
| 2026-05-08 21:11 | 8.21356 | 98.00677 | 5733 ft | 250 kts | 171° |
| 2026-05-08 21:11 | 8.19688 | 98.00844 | 5501 ft | 233 kts | 171° |
| 2026-05-08 21:12 | 8.18110 | 98.01006 | 5145 ft | 223 kts | 171° |
| 2026-05-08 21:12 | 8.16586 | 98.01157 | 4714 ft | 218 kts | 171° |
| 2026-05-08 21:12 | 8.15080 | 98.01298 | 4264 ft | 216 kts | 172° |
| 2026-05-08 21:12 | 8.13580 | 98.01438 | 4029 ft | 216 kts | 172° |
| 2026-05-08 21:13 | 8.12093 | 98.01573 | 3748 ft | 218 kts | 172° |
| 2026-05-08 21:13 | 8.10603 | 98.01769 | 3494 ft | 214 kts | 163° |
| 2026-05-08 21:13 | 8.09339 | 98.02482 | 3223 ft | 208 kts | 131° |
| 2026-05-08 21:13 | 8.08729 | 98.03761 | 3019 ft | 203 kts | 97° |
| 2026-05-08 21:14 | 8.08734 | 98.05185 | 2994 ft | 204 kts | 85° |
| 2026-05-08 21:14 | 8.08886 | 98.06588 | 2983 ft | 197 kts | 84° |
| 2026-05-08 21:14 | 8.09044 | 98.07941 | 3008 ft | 190 kts | 84° |
| 2026-05-08 21:14 | 8.09191 | 98.09214 | 2988 ft | 175 kts | 84° |
| 2026-05-08 21:15 | 8.09319 | 98.10417 | 2996 ft | 172 kts | 84° |
| 2026-05-08 21:15 | 8.09441 | 98.11587 | 2985 ft | 164 kts | 85° |
| 2026-05-08 21:15 | 8.09550 | 98.12712 | 2993 ft | 159 kts | 85° |
| 2026-05-08 21:15 | 8.09653 | 98.13830 | 2994 ft | 161 kts | 85° |
| 2026-05-08 21:16 | 8.09759 | 98.14957 | 2994 ft | 161 kts | 85° |
| 2026-05-08 21:16 | 8.09865 | 98.16084 | 2997 ft | 161 kts | 85° |
| 2026-05-08 21:16 | 8.09968 | 98.17213 | 2996 ft | 162 kts | 85° |
| 2026-05-08 21:16 | 8.10077 | 98.18346 | 2988 ft | 162 kts | 85° |
| 2026-05-08 21:17 | 8.10245 | 98.19468 | 2976 ft | 164 kts | 73° |
| 2026-05-08 21:17 | 8.10997 | 98.20348 | 2997 ft | 175 kts | 33° |
| 2026-05-08 21:17 | 8.12189 | 98.20659 | 2989 ft | 182 kts | 6° |
| 2026-05-08 21:17 | 8.13470 | 98.20393 | 2999 ft | 198 kts | 335° |
| 2026-05-08 21:18 | 8.14515 | 98.19470 | 2994 ft | 202 kts | 313° |
| 2026-05-08 21:18 | 8.15396 | 98.18358 | 2987 ft | 202 kts | 309° |
| 2026-05-08 21:18 | 8.16024 | 98.17101 | 2992 ft | 204 kts | 283° |
| 2026-05-08 21:18 | 8.16150 | 98.15672 | 2994 ft | 203 kts | 271° |
| 2026-05-08 21:19 | 8.16081 | 98.14269 | 2990 ft | 203 kts | 263° |
| 2026-05-08 21:19 | 8.15937 | 98.12853 | 2987 ft | 203 kts | 263° |
| 2026-05-08 21:19 | 8.15824 | 98.11433 | 2994 ft | 202 kts | 264° |
| 2026-05-08 21:19 | 8.15712 | 98.10021 | 2990 ft | 203 kts | 264° |
| 2026-05-08 21:20 | 8.15598 | 98.08598 | 2996 ft | 203 kts | 264° |
| 2026-05-08 21:20 | 8.15480 | 98.07181 | 2991 ft | 203 kts | 264° |
| 2026-05-08 21:20 | 8.15362 | 98.05757 | 2984 ft | 204 kts | 264° |
| 2026-05-08 21:20 | 8.15245 | 98.04328 | 2987 ft | 203 kts | 264° |
| 2026-05-08 21:21 | 8.15124 | 98.02903 | 2985 ft | 204 kts | 264° |
| 2026-05-08 21:21 | 8.14923 | 98.01489 | 2962 ft | 204 kts | 251° |
| 2026-05-08 21:21 | 8.14114 | 98.00356 | 2983 ft | 199 kts | 215° |
| 2026-05-08 21:21 | 8.12857 | 97.99888 | 2988 ft | 195 kts | 184° |
| 2026-05-08 21:22 | 8.11517 | 97.99861 | 2985 ft | 191 kts | 176° |
| 2026-05-08 21:22 | 8.10191 | 97.99920 | 2989 ft | 191 kts | 174° |
| 2026-05-08 21:22 | 8.08943 | 98.00293 | 2986 ft | 188 kts | 144° |
| 2026-05-08 21:22 | 8.08176 | 98.01313 | 2981 ft | 184 kts | 108° |
| 2026-05-08 21:23 | 8.08088 | 98.02582 | 2990 ft | 183 kts | 84° |
| 2026-05-08 21:23 | 8.08334 | 98.03848 | 2994 ft | 183 kts | 79° |
| 2026-05-08 21:23 | 8.08591 | 98.05107 | 2987 ft | 183 kts | 79° |
| 2026-05-08 21:23 | 8.08816 | 98.06362 | 2974 ft | 177 kts | 81° |
| 2026-05-08 21:24 | 8.08988 | 98.07558 | 2986 ft | 173 kts | 83° |
| 2026-05-08 21:24 | 8.09138 | 98.08753 | 2982 ft | 171 kts | 84° |
| 2026-05-08 21:24 | 8.09263 | 98.09938 | 2994 ft | 166 kts | 84° |
| 2026-05-08 21:24 | 8.09380 | 98.11073 | 2989 ft | 160 kts | 84° |
| 2026-05-08 21:25 | 8.09489 | 98.12153 | 2969 ft | 145 kts | 85° |
| 2026-05-08 21:25 | 8.09577 | 98.13106 | 2974 ft | 132 kts | 85° |
| 2026-05-08 21:25 | 8.09662 | 98.14029 | 2995 ft | 132 kts | 85° |
| 2026-05-08 21:25 | 8.09719 | 98.14641 | 2988 ft | 132 kts | 85° |
| 2026-05-08 21:26 | 8.09834 | 98.15871 | 2939 ft | 134 kts | 86° |
| 2026-05-08 21:26 | 8.09922 | 98.16821 | 2677 ft | 136 kts | 85° |
| 2026-05-08 21:26 | 8.10021 | 98.17756 | 2428 ft | 132 kts | 85° |
| 2026-05-08 21:26 | 8.10118 | 98.18670 | 2241 ft | 130 kts | 85° |
| 2026-05-08 21:27 | 8.10182 | 98.19274 | 2150 ft | 131 kts | 84° |
| 2026-05-08 21:27 | 8.10293 | 98.20191 | 2035 ft | 132 kts | 84° |
| 2026-05-08 21:27 | 8.10357 | 98.21114 | 1874 ft | 133 kts | 89° |
| 2026-05-08 21:27 | 8.10371 | 98.22062 | 1576 ft | 134 kts | 86° |
| 2026-05-08 21:28 | 8.10508 | 98.22974 | 1330 ft | 130 kts | 78° |
| 2026-05-08 21:28 | 8.10613 | 98.23870 | 1105 ft | 128 kts | 88° |
| 2026-05-08 21:28 | 8.10639 | 98.24772 | 1054 ft | 130 kts | 86° |
| 2026-05-08 21:28 | 8.10789 | 98.25687 | 961 ft | 133 kts | 81° |
| 2026-05-08 21:29 | 8.10838 | 98.26621 | 740 ft | 132 kts | 86° |
| 2026-05-08 21:29 | 8.10939 | 98.27542 | 590 ft | 133 kts | 84° |
| 2026-05-08 21:29 | 8.11025 | 98.28484 | 406 ft | 135 kts | 85° |
| 2026-05-08 21:29 | 8.11111 | 98.29425 | 235 ft | 133 kts | 86° |
| 2026-05-08 21:30 | 8.11201 | 98.30348 | 49 ft | 134 kts | 84° |
| 2026-05-08 21:30 | 8.11277 | 98.31191 | 37 ft | 96 kts | 85° |
| 2026-05-08 21:30 | 8.11314 | 98.31578 | 46 ft | 30 kts | 85° |
| 2026-05-08 21:30 | 8.11329 | 98.31775 | 55 ft | 26 kts | 85° |
| 2026-05-08 21:31 | 8.11346 | 98.31949 | 58 ft | 26 kts | 84° |
| 2026-05-08 21:31 | 8.11367 | 98.32160 | 72 ft | 33 kts | 85° |
| 2026-05-08 21:31 | 8.11347 | 98.32356 | 85 ft | 25 kts | 109° |
| 2026-05-08 21:31 | 8.11337 | 98.32384 | 85 ft | 1 kts | 111° |
| 2026-05-08 21:32 | 8.11308 | 98.32427 | 87 ft | 9 kts | 136° |
| 2026-05-08 21:32 | 8.11261 | 98.32416 | 88 ft | 9 kts | 232° |
| 2026-05-08 21:32 | 8.11247 | 98.32341 | 85 ft | 14 kts | 264° |
| 2026-05-08 21:32 | 8.11236 | 98.32225 | 75 ft | 20 kts | 264° |
| 2026-05-08 21:33 | 8.11222 | 98.32069 | 68 ft | 17 kts | 265° |
| 2026-05-08 21:33 | 8.11217 | 98.32012 | 58 ft | 11 kts | 265° |
| 2026-05-08 21:33 | 8.11208 | 98.31916 | 61 ft | 17 kts | 264° |
| 2026-05-08 21:33 | 8.11195 | 98.31784 | 55 ft | 18 kts | 265° |
| 2026-05-08 21:34 | 8.11182 | 98.31641 | 50 ft | 19 kts | 265° |
| 2026-05-08 21:34 | 8.11169 | 98.31505 | 44 ft | 24 kts | 264° |
| 2026-05-08 21:34 | 8.11163 | 98.31436 | 42 ft | 1 kts | 264° |
| 2026-05-08 21:34 | 8.11159 | 98.31404 | 41 ft | 8 kts | 264° |
| 2026-05-08 21:35 | 8.11152 | 98.31331 | 39 ft | 13 kts | 264° |
| 2026-05-08 21:35 | 8.11143 | 98.31225 | 37 ft | 17 kts | 264° |
| 2026-05-08 21:35 | 8.11132 | 98.31108 | 36 ft | 14 kts | 264° |
| 2026-05-08 21:35 | 8.11124 | 98.31030 | 36 ft | 9 kts | 263° |
| 2026-05-08 21:36 | 8.11101 | 98.30957 | 36 ft | 12 kts | 244° |
| 2026-05-08 21:36 | 8.11082 | 98.30861 | 35 ft | 16 kts | 264° |
| 2026-05-08 21:36 | 8.11072 | 98.30766 | 35 ft | 14 kts | 264° |
| 2026-05-08 21:36 | 8.11063 | 98.30661 | 34 ft | 17 kts | 264° |
| 2026-05-08 21:37 | 8.11053 | 98.30567 | 34 ft | 10 kts | 264° |
| 2026-05-08 21:37 | 8.11031 | 98.30495 | 33 ft | 12 kts | 226° |
| 2026-05-08 21:37 | 8.10946 | 98.30467 | 33 ft | 14 kts | 194° |
| 2026-05-08 21:37 | 8.10881 | 98.30450 | 33 ft | 11 kts | 194° |
| 2026-05-08 21:38 | 8.10799 | 98.30428 | 33 ft | 13 kts | 195° |
| 2026-05-08 21:38 | 8.10781 | 98.30423 | 33 ft | 3 kts | 195° |
| 2026-05-08 21:38 | 8.10752 | 98.30416 | 33 ft | 5 kts | 187° |
| 2026-05-08 21:38 | 8.10733 | 98.30432 | 32 ft | 3 kts | 117° |
| 2026-05-08 21:39 | 8.10726 | 98.30458 | 33 ft | 3 kts | 105° |
| 2026-05-08 21:39 | 8.10721 | 98.30477 | 33 ft | 0 kts | 106° |
| 2026-05-08 21:39 | 8.10719 | 98.30487 | 33 ft | 2 kts | 105° |
| 2026-05-08 21:39 | 8.10716 | 98.30496 | 33 ft | 0 kts | 105° |
| 2026-05-08 21:40 | 8.10716 | 98.30497 | 33 ft | 0 kts | 105° |
| 2026-05-08 21:41 | 8.10714 | 98.30503 | 33 ft | 0 kts | 105° |